Time;durP1;ratioP1;P1;durP2;ratioP2;P2;SDS_P1;SDS_P2;PMS_P1;PMS_P2;Temp;Humidity;BMP_temperature;BMP_pressure;BME280_temperature;BME280_humidity;BME280_pressure;Samples;Min_cycle;Max_cycle;Signal;HPM_P1;HPM_P2
2024/02/10 00:01:39;;;;;;;7.50;5.35;;;10.50;99.90;;;;;;4927617;28;20035;-78
2024/02/10 00:04:06;;;;;;;10.40;5.30;;;10.40;99.90;;;;;;4945305;28;20499;-78
2024/02/10 00:06:36;;;;;;;8.77;6.13;;;10.40;99.90;;;;;;4943261;28;20035;-78
2024/02/10 00:09:07;;;;;;;8.98;5.35;;;10.40;99.90;;;;;;4927359;28;20431;-78
2024/02/10 00:11:38;;;;;;;9.18;5.05;;;10.40;99.90;;;;;;4927293;28;20035;-79
2024/02/10 00:14:04;;;;;;;10.80;5.53;;;10.40;99.90;;;;;;4925832;28;20419;-78
2024/02/10 00:16:30;;;;;;;9.70;5.28;;;10.40;99.90;;;;;;4930237;28;21647;-78
2024/02/10 00:19:02;;;;;;;11.07;5.38;;;10.40;99.90;;;;;;4922940;28;20416;-78
2024/02/10 00:21:29;;;;;;;9.65;4.88;;;10.40;99.90;;;;;;4925477;28;20595;-79
2024/02/10 00:23:55;;;;;;;13.15;6.10;;;10.50;99.90;;;;;;4926935;28;20158;-78
2024/02/10 00:26:22;;;;;;;8.18;5.15;;;10.40;99.90;;;;;;4923868;28;20551;-78
2024/02/10 00:28:50;;;;;;;13.20;5.65;;;10.40;99.90;;;;;;4913079;28;20067;-79
2024/02/10 00:31:16;;;;;;;9.10;6.20;;;10.40;99.90;;;;;;4914046;28;20031;-79
2024/02/10 00:33:46;;;;;;;7.78;4.43;;;10.40;99.90;;;;;;4927175;28;20050;-78
2024/02/10 00:36:12;;;;;;;18.48;6.03;;;10.40;99.90;;;;;;4929935;28;20066;-78
2024/02/10 00:38:40;;;;;;;6.78;4.65;;;10.30;99.90;;;;;;4925919;28;20031;-78
2024/02/10 00:41:06;;;;;;;9.38;5.47;;;10.20;99.90;;;;;;4928190;28;20473;-78
2024/02/10 00:43:32;;;;;;;6.97;4.38;;;10.20;99.90;;;;;;4930318;28;20031;-78
2024/02/10 00:45:59;;;;;;;9.23;4.30;;;10.20;99.90;;;;;;4914708;28;20293;-78
2024/02/10 00:48:28;;;;;;;12.35;4.22;;;10.20;99.90;;;;;;4912622;28;20258;-78
2024/02/10 00:51:00;;;;;;;7.45;3.78;;;10.20;99.90;;;;;;4927549;28;20421;-78
2024/02/10 00:53:26;;;;;;;5.82;2.28;;;10.20;99.90;;;;;;4928886;28;20039;-78
2024/02/10 00:55:51;;;;;;;8.38;2.60;;;10.20;99.90;;;;;;4942257;28;20039;-79
2024/02/10 00:58:17;;;;;;;5.63;3.20;;;10.20;99.90;;;;;;4926512;28;20047;-78
2024/02/10 01:00:45;;;;;;;3.17;2.60;;;10.20;99.90;;;;;;4942490;28;20053;-78
2024/02/10 01:03:13;;;;;;;6.35;2.42;;;10.20;99.90;;;;;;4936036;28;20046;-78
2024/02/10 01:05:39;;;;;;;3.33;1.50;;;10.20;99.90;;;;;;4928026;28;20035;-77
2024/02/10 01:08:05;;;;;;;2.90;1.75;;;10.10;99.90;;;;;;4926370;28;20061;-77
2024/02/10 01:10:31;;;;;;;3.50;2.25;;;10.00;99.90;;;;;;4938492;28;20079;-77
2024/02/10 01:13:01;;;;;;;1.63;1.50;;;9.90;99.90;;;;;;4928391;28;20093;-78
2024/02/10 01:15:28;;;;;;;1.80;1.60;;;10.00;99.90;;;;;;4912019;28;20042;-77
2024/02/10 01:17:53;;;;;;;1.88;1.60;;;10.00;99.90;;;;;;4913763;28;20035;-78
2024/02/10 01:20:19;;;;;;;2.33;1.55;;;10.10;99.90;;;;;;4944185;28;20039;-77
2024/02/10 01:22:46;;;;;;;3.00;1.70;;;10.10;99.90;;;;;;4912785;28;20042;-77
2024/02/10 01:25:12;;;;;;;4.68;1.73;;;10.10;99.90;;;;;;4942543;28;20078;-78
2024/02/10 01:27:37;;;;;;;3.65;1.50;;;10.00;99.90;;;;;;4929565;28;20035;-77
2024/02/10 01:30:03;;;;;;;2.88;1.38;;;10.10;99.90;;;;;;4942893;28;20053;-78
2024/02/10 01:32:29;;;;;;;2.75;1.45;;;10.10;99.90;;;;;;4928556;28;20032;-76
2024/02/10 01:34:54;;;;;;;2.63;1.20;;;10.10;99.90;;;;;;4939122;28;20461;-77
2024/02/10 01:37:23;;;;;;;1.88;1.30;;;10.10;99.90;;;;;;4913682;28;20433;-77
2024/02/10 01:39:53;;;;;;;4.63;1.75;;;10.10;99.90;;;;;;4943809;28;20031;-76
2024/02/10 01:42:19;;;;;;;2.17;1.50;;;10.10;99.90;;;;;;4929175;28;20043;-76
2024/02/10 01:44:45;;;;;;;2.33;1.80;;;10.10;99.90;;;;;;4929784;28;20068;-77
2024/02/10 01:47:14;;;;;;;1.83;1.50;;;10.10;99.90;;;;;;4929778;28;20501;-76
2024/02/10 01:49:42;;;;;;;2.72;1.50;;;10.10;99.90;;;;;;4940542;28;20706;-76
2024/02/10 01:52:08;;;;;;;1.60;1.45;;;10.00;99.90;;;;;;4908751;28;20122;-78
2024/02/10 01:54:35;;;;;;;2.33;1.70;;;9.90;99.90;;;;;;4907907;28;20035;-77
2024/02/10 01:57:00;;;;;;;3.28;1.52;;;10.00;99.90;;;;;;4923015;28;20047;-77
2024/02/10 01:59:26;;;;;;;2.03;1.40;;;9.90;99.90;;;;;;4942383;28;20532;-77
2024/02/10 02:01:52;;;;;;;3.80;2.00;;;10.00;99.90;;;;;;4914756;28;20497;-77
2024/02/10 02:04:22;;;;;;;2.65;1.70;;;9.90;99.90;;;;;;4913203;28;20043;-77
2024/02/10 02:06:48;;;;;;;3.20;2.15;;;9.90;99.90;;;;;;4926723;28;20035;-77
2024/02/10 02:09:15;;;;;;;3.05;1.60;;;9.90;99.90;;;;;;4926104;28;20351;-77
2024/02/10 02:11:48;;;;;;;4.30;2.45;;;9.90;99.90;;;;;;4940368;28;20036;-77
2024/02/10 02:14:15;;;;;;;5.15;2.70;;;9.80;99.90;;;;;;4930197;28;20044;-77
2024/02/10 02:16:43;;;;;;;3.67;2.03;;;9.80;99.90;;;;;;4929236;28;20161;-77
2024/02/10 02:19:11;;;;;;;3.90;2.30;;;9.90;99.90;;;;;;4928478;28;20038;-77
2024/02/10 02:21:36;;;;;;;7.20;2.40;;;9.80;99.90;;;;;;4924553;28;20032;-76
2024/02/10 02:24:02;;;;;;;4.28;2.42;;;9.80;99.90;;;;;;4946834;28;20456;-76
2024/02/10 02:26:28;;;;;;;4.50;2.28;;;9.80;99.90;;;;;;4927840;28;20118;-78
2024/02/10 02:28:54;;;;;;;3.70;2.83;;;9.70;99.90;;;;;;4947388;28;20031;-77
2024/02/10 02:31:20;;;;;;;4.05;2.90;;;9.70;99.90;;;;;;4945826;28;20031;-76
2024/02/10 02:33:45;;;;;;;4.07;2.25;;;9.70;99.90;;;;;;4912753;28;20031;-77
2024/02/10 02:36:11;;;;;;;5.65;2.05;;;9.70;99.90;;;;;;4929556;28;20059;-76
2024/02/10 02:38:38;;;;;;;3.60;2.60;;;9.70;99.90;;;;;;4931568;28;20032;-76
2024/02/10 02:41:03;;;;;;;2.78;2.22;;;9.80;99.90;;;;;;4927378;28;20595;-78
2024/02/10 02:43:33;;;;;;;10.00;3.20;;;9.80;99.90;;;;;;4947518;28;20035;-77
2024/02/10 02:45:59;;;;;;;5.88;2.88;;;9.80;99.90;;;;;;4913587;28;20032;-77
2024/02/10 02:48:24;;;;;;;4.18;2.72;;;9.80;99.90;;;;;;4915247;28;20059;-77
2024/02/10 02:50:50;;;;;;;7.10;2.25;;;9.80;99.90;;;;;;4927654;28;20343;-77
2024/02/10 02:53:15;;;;;;;4.88;2.38;;;9.80;99.90;;;;;;4912164;28;20039;-77
2024/02/10 02:55:44;;;;;;;4.95;2.83;;;9.80;99.90;;;;;;4926426;28;20114;-76
2024/02/10 02:58:09;;;;;;;7.32;4.45;;;9.80;99.90;;;;;;4932292;28;20084;-76
2024/02/10 03:00:38;;;;;;;6.18;3.00;;;9.80;99.90;;;;;;4942978;28;20106;-77
2024/02/10 03:03:04;;;;;;;3.80;2.53;;;9.80;99.90;;;;;;4946771;28;20066;-76
2024/02/10 03:05:32;;;;;;;3.75;2.55;;;9.80;99.90;;;;;;4945402;28;20393;-76
2024/02/10 03:07:58;;;;;;;3.30;2.38;;;9.90;99.90;;;;;;4928720;28;20082;-76
2024/02/10 03:10:23;;;;;;;4.22;2.28;;;9.90;99.90;;;;;;4929923;28;20037;-76
2024/02/10 03:12:49;;;;;;;2.70;2.28;;;9.80;99.90;;;;;;4913814;28;20032;-76
2024/02/10 03:15:15;;;;;;;4.53;2.25;;;9.80;99.90;;;;;;4914159;28;20043;-77
2024/02/10 03:17:45;;;;;;;2.65;1.90;;;9.80;99.90;;;;;;4915895;28;20032;-77
2024/02/10 03:20:11;;;;;;;5.75;2.28;;;9.80;99.90;;;;;;4914727;28;20588;-77
2024/02/10 03:22:36;;;;;;;3.22;2.65;;;9.80;99.90;;;;;;4928619;28;20107;-77
2024/02/10 03:25:03;;;;;;;3.53;2.08;;;9.80;99.90;;;;;;4942822;28;20030;-77
2024/02/10 03:27:28;;;;;;;2.80;1.98;;;9.70;99.90;;;;;;4927233;28;20038;-77
2024/02/10 03:29:54;;;;;;;4.32;2.10;;;9.80;99.90;;;;;;4930120;28;20040;-77
2024/02/10 03:32:19;;;;;;;3.47;2.10;;;9.70;99.90;;;;;;4931361;28;21015;-76
2024/02/10 03:34:45;;;;;;;4.30;2.08;;;9.70;99.90;;;;;;4914472;28;20027;-78
2024/02/10 03:37:12;;;;;;;3.15;2.05;;;9.70;99.90;;;;;;4915359;28;20586;-77
2024/02/10 03:39:38;;;;;;;4.53;2.17;;;9.60;99.90;;;;;;4925120;28;20031;-77
2024/02/10 03:42:04;;;;;;;5.53;1.80;;;9.70;99.90;;;;;;4941078;28;20507;-77
2024/02/10 03:44:30;;;;;;;2.78;1.95;;;9.60;99.90;;;;;;4955622;28;20109;-78
2024/02/10 03:46:57;;;;;;;4.50;1.95;;;9.60;99.90;;;;;;4943763;28;20054;-79
2024/02/10 03:49:23;;;;;;;2.67;1.90;;;9.60;99.90;;;;;;4929025;28;20480;-79
2024/02/10 03:51:49;;;;;;;4.30;1.63;;;9.60;99.90;;;;;;4942737;28;20364;-78
2024/02/10 03:54:14;;;;;;;3.05;2.08;;;9.50;99.90;;;;;;4927311;28;20042;-78
2024/02/10 03:56:47;;;;;;;3.58;1.85;;;9.50;99.90;;;;;;4930131;28;20039;-79
2024/02/10 03:59:14;;;;;;;4.05;2.00;;;9.50;99.90;;;;;;4915206;28;20031;-79
2024/02/10 04:01:42;;;;;;;3.08;1.83;;;9.50;99.90;;;;;;4913508;28;20027;-78
2024/02/10 04:04:08;;;;;;;4.47;1.83;;;9.50;99.90;;;;;;4914633;28;20032;-78
2024/02/10 04:06:34;;;;;;;2.65;2.17;;;9.40;99.90;;;;;;4928671;28;20381;-78
2024/02/10 04:09:01;;;;;;;2.30;2.08;;;9.40;99.90;;;;;;4913120;28;20508;-79
2024/02/10 04:11:27;;;;;;;1.95;1.75;;;9.40;99.90;;;;;;4944743;28;20118;-79
2024/02/10 04:13:53;;;;;;;2.42;1.90;;;9.40;99.90;;;;;;4913467;28;20127;-79
2024/02/10 04:16:19;;;;;;;3.58;2.08;;;9.50;99.90;;;;;;4913017;28;20043;-79
2024/02/10 04:18:44;;;;;;;3.58;2.10;;;9.50;99.90;;;;;;4913993;28;20038;-79
2024/02/10 04:21:10;;;;;;;1.90;1.63;;;9.50;99.90;;;;;;4911438;29;20094;-78
2024/02/10 04:23:37;;;;;;;2.40;1.48;;;9.50;99.90;;;;;;4929392;28;20028;-79
2024/02/10 04:26:03;;;;;;;3.15;1.92;;;9.30;99.90;;;;;;4924953;28;20059;-78
2024/02/10 04:28:28;;;;;;;3.50;1.88;;;9.40;99.90;;;;;;4941903;28;20051;-79
2024/02/10 04:30:55;;;;;;;2.50;2.28;;;9.40;99.90;;;;;;4925906;28;20477;-80
2024/02/10 04:33:20;;;;;;;2.22;1.75;;;9.40;99.90;;;;;;4909590;28;20035;-78
2024/02/10 04:35:48;;;;;;;2.90;2.33;;;9.40;99.90;;;;;;4913585;28;20547;-79
2024/02/10 04:38:14;;;;;;;2.15;1.65;;;9.40;99.90;;;;;;4956649;28;20418;-79
2024/02/10 04:40:39;;;;;;;4.28;2.10;;;9.30;99.90;;;;;;4908177;28;20024;-79
2024/02/10 04:43:05;;;;;;;2.95;1.58;;;9.30;99.90;;;;;;4924094;28;20039;-79
2024/02/10 04:45:32;;;;;;;2.33;1.95;;;9.30;99.90;;;;;;4928566;28;20065;-79
2024/02/10 04:48:04;;;;;;;3.08;1.83;;;9.30;99.90;;;;;;4923101;28;20031;-79
2024/02/10 04:50:29;;;;;;;4.45;1.80;;;9.20;99.90;;;;;;4928318;28;20035;-79
2024/02/10 04:52:56;;;;;;;1.88;1.58;;;9.20;99.90;;;;;;4925924;28;20023;-79
2024/02/10 04:55:22;;;;;;;2.35;2.00;;;9.20;99.90;;;;;;4943605;28;20389;-79
2024/02/10 04:57:48;;;;;;;2.63;1.83;;;9.20;99.90;;;;;;4940828;28;20035;-78
2024/02/10 05:00:17;;;;;;;3.55;2.00;;;9.20;99.90;;;;;;4930349;28;20444;-78
2024/02/10 05:02:47;;;;;;;3.40;1.98;;;9.20;99.90;;;;;;4916336;28;20038;-78
2024/02/10 05:05:13;;;;;;;2.10;1.90;;;9.20;99.90;;;;;;4913239;28;20344;-78
2024/02/10 05:07:42;;;;;;;3.20;1.90;;;9.10;99.90;;;;;;4924938;28;20400;-78
2024/02/10 05:10:11;;;;;;;2.75;1.90;;;9.10;99.90;;;;;;4925255;28;20031;-78
2024/02/10 05:12:39;;;;;;;2.85;2.03;;;9.10;99.90;;;;;;4942316;28;20495;-79
2024/02/10 05:15:09;;;;;;;2.40;1.90;;;9.00;99.90;;;;;;4924333;28;20118;-78
2024/02/10 05:17:38;;;;;;;2.40;2.20;;;9.00;99.90;;;;;;4929834;28;20043;-79
2024/02/10 05:20:04;;;;;;;2.85;2.08;;;8.90;99.90;;;;;;4928195;28;20422;-79
2024/02/10 05:22:30;;;;;;;3.17;1.92;;;8.90;99.90;;;;;;4930395;28;20602;-78
2024/02/10 05:24:57;;;;;;;2.70;1.92;;;8.90;99.90;;;;;;4906859;28;20035;-78
2024/02/10 05:27:23;;;;;;;4.13;2.00;;;8.90;99.90;;;;;;4925031;28;20142;-78
2024/02/10 05:29:49;;;;;;;2.17;1.90;;;8.90;99.90;;;;;;4910098;28;20119;-78
2024/02/10 05:32:14;;;;;;;4.57;1.88;;;8.90;99.90;;;;;;4927357;28;20035;-79
2024/02/10 05:34:44;;;;;;;3.25;2.17;;;8.90;99.90;;;;;;4909153;28;21672;-80
2024/02/10 05:37:09;;;;;;;2.55;1.77;;;8.80;99.90;;;;;;4922940;28;20051;-79
2024/02/10 05:39:35;;;;;;;2.30;2.10;;;8.80;99.90;;;;;;4940619;28;20036;-79
2024/02/10 05:42:02;;;;;;;2.85;1.65;;;8.90;99.90;;;;;;4909377;28;20020;-79
2024/02/10 05:44:27;;;;;;;2.92;2.50;;;8.80;99.90;;;;;;4927550;28;20023;-79
2024/02/10 05:46:53;;;;;;;2.72;2.00;;;8.80;99.90;;;;;;4925392;28;20078;-80
2024/02/10 05:49:21;;;;;;;2.13;1.45;;;8.70;99.90;;;;;;4929010;28;20042;-79
2024/02/10 05:51:48;;;;;;;5.43;1.90;;;8.70;99.90;;;;;;4925458;28;20051;-80
2024/02/10 05:54:14;;;;;;;2.20;2.00;;;8.70;99.90;;;;;;4924103;28;20337;-79
2024/02/10 05:56:43;;;;;;;2.58;1.73;;;8.80;99.90;;;;;;4923103;28;20103;-80
2024/02/10 05:59:13;;;;;;;3.22;2.03;;;8.70;99.90;;;;;;4928173;28;20457;-80
2024/02/10 06:01:39;;;;;;;2.10;1.75;;;8.60;99.90;;;;;;4912474;28;20520;-80
2024/02/10 06:04:10;;;;;;;2.58;1.90;;;8.60;99.90;;;;;;4923531;28;20031;-80
2024/02/10 06:06:36;;;;;;;1.90;1.70;;;8.60;99.90;;;;;;4941202;28;20035;-79
2024/02/10 06:09:02;;;;;;;3.88;2.00;;;8.60;99.90;;;;;;4908144;28;20079;-80
2024/02/10 06:11:33;;;;;;;2.30;2.10;;;8.60;99.90;;;;;;4921976;28;20451;-80
2024/02/10 06:13:59;;;;;;;2.17;1.60;;;8.60;99.90;;;;;;4923583;28;20035;-80
2024/02/10 06:16:24;;;;;;;2.10;1.90;;;8.60;99.90;;;;;;4922737;28;20114;-80
2024/02/10 06:18:50;;;;;;;2.53;1.85;;;8.60;99.90;;;;;;4926019;28;20583;-80
2024/02/10 06:21:16;;;;;;;2.50;2.25;;;8.60;99.90;;;;;;4909669;28;20102;-78
2024/02/10 06:23:42;;;;;;;4.38;2.75;;;8.50;99.90;;;;;;4927677;28;20032;-79
2024/02/10 06:26:10;;;;;;;4.20;3.22;;;8.50;99.90;;;;;;4909741;28;20119;-79
2024/02/10 06:28:36;;;;;;;2.30;2.10;;;8.40;99.90;;;;;;4940311;28;20108;-79
2024/02/10 06:31:02;;;;;;;2.50;2.03;;;8.40;99.90;;;;;;4905569;28;20122;-78
2024/02/10 06:33:30;;;;;;;3.25;2.35;;;8.30;99.90;;;;;;4907236;28;20122;-79
2024/02/10 06:35:58;;;;;;;2.17;1.98;;;8.30;99.90;;;;;;4918130;28;20031;-79
2024/02/10 06:38:32;;;;;;;3.30;2.42;;;8.20;99.90;;;;;;4925685;28;20059;-80
2024/02/10 06:41:01;;;;;;;4.60;2.67;;;8.20;99.90;;;;;;4914932;28;20034;-80
2024/02/10 06:43:27;;;;;;;3.35;2.10;;;8.20;99.90;;;;;;4924097;28;20046;-80
2024/02/10 06:45:52;;;;;;;2.53;1.90;;;8.20;99.90;;;;;;4927191;28;20039;-79
2024/02/10 06:48:19;;;;;;;2.47;1.83;;;8.30;99.90;;;;;;4912442;28;20036;-80
2024/02/10 06:50:45;;;;;;;5.45;2.70;;;8.20;99.90;;;;;;4921966;28;20180;-78
2024/02/10 06:53:10;;;;;;;5.03;2.17;;;8.10;99.90;;;;;;4927735;28;20042;-80
2024/02/10 06:55:36;;;;;;;3.90;2.25;;;8.20;99.90;;;;;;4912005;28;20039;-80
2024/02/10 06:58:02;;;;;;;4.32;2.03;;;8.20;99.90;;;;;;4943366;28;20075;-79
2024/02/10 07:00:28;;;;;;;3.35;2.20;;;8.20;99.90;;;;;;4925244;28;20044;-78
2024/02/10 07:02:56;;;;;;;3.30;2.10;;;8.20;99.90;;;;;;4926843;28;20544;-78
2024/02/10 07:05:22;;;;;;;3.42;2.25;;;8.20;99.90;;;;;;4912850;28;20043;-78
2024/02/10 07:07:48;;;;;;;2.42;1.63;;;8.10;99.90;;;;;;4912803;28;20041;-78
2024/02/10 07:10:14;;;;;;;3.10;2.45;;;8.10;99.90;;;;;;4912391;28;20032;-78
2024/02/10 07:12:43;;;;;;;2.72;2.20;;;8.10;99.90;;;;;;4931385;28;20031;-78
2024/02/10 07:15:12;;;;;;;2.67;2.40;;;8.10;99.90;;;;;;4916462;28;20155;-79
2024/02/10 07:17:43;;;;;;;3.70;2.50;;;8.10;99.90;;;;;;4915486;28;20122;-78
2024/02/10 07:20:10;;;;;;;2.80;2.40;;;8.10;99.90;;;;;;4910965;28;20036;-79
2024/02/10 07:22:35;;;;;;;4.72;3.83;;;8.20;99.90;;;;;;4931571;28;20032;-78
2024/02/10 07:25:03;;;;;;;4.10;3.13;;;8.20;99.90;;;;;;4927100;28;20079;-79
2024/02/10 07:27:29;;;;;;;3.17;2.88;;;8.20;99.90;;;;;;4943022;28;20064;-78
2024/02/10 07:29:54;;;;;;;3.65;2.78;;;8.20;99.90;;;;;;4926677;28;20070;-78
2024/02/10 07:32:20;;;;;;;3.22;2.53;;;8.30;99.90;;;;;;4928759;28;20035;-79
2024/02/10 07:34:47;;;;;;;4.00;3.33;;;8.30;99.90;;;;;;4913443;28;20039;-78
2024/02/10 07:37:13;;;;;;;3.88;3.08;;;8.30;99.90;;;;;;4915427;28;20066;-79
2024/02/10 07:39:40;;;;;;;3.25;2.95;;;8.40;99.90;;;;;;4924337;28;20031;-77
2024/02/10 07:42:06;;;;;;;5.10;2.60;;;8.40;99.90;;;;;;4908474;28;20035;-78
2024/02/10 07:44:31;;;;;;;8.80;5.00;;;8.40;99.90;;;;;;4918790;28;20031;-79
2024/02/10 07:46:57;;;;;;;4.95;2.95;;;8.50;99.90;;;;;;4922803;28;20044;-79
2024/02/10 07:49:23;;;;;;;3.67;2.80;;;8.60;99.90;;;;;;4925316;28;20584;-78
2024/02/10 07:51:48;;;;;;;3.33;2.92;;;8.60;99.90;;;;;;4926147;28;20044;-78
2024/02/10 07:54:14;;;;;;;4.32;3.42;;;8.60;99.90;;;;;;4914558;28;20505;-78
2024/02/10 07:56:41;;;;;;;3.55;3.00;;;8.70;99.90;;;;;;4929592;28;20114;-78
2024/02/10 07:59:06;;;;;;;4.45;3.67;;;8.80;99.90;;;;;;4915199;28;20093;-78
2024/02/10 08:01:32;;;;;;;4.90;3.53;;;8.90;99.90;;;;;;4914424;28;20039;-78
2024/02/10 08:03:58;;;;;;;7.20;3.25;;;8.90;99.90;;;;;;4925702;28;20513;-78
2024/02/10 08:06:26;;;;;;;4.05;3.20;;;8.90;99.90;;;;;;4939663;28;20495;-78
2024/02/10 08:08:57;;;;;;;3.92;3.00;;;9.00;99.90;;;;;;4909444;28;20039;-78
2024/02/10 08:11:26;;;;;;;3.50;3.15;;;9.10;99.90;;;;;;4912905;28;20035;-77
2024/02/10 08:13:53;;;;;;;4.75;2.97;;;9.10;99.90;;;;;;4915087;28;20269;-78
2024/02/10 08:16:19;;;;;;;3.20;2.85;;;9.30;99.90;;;;;;4922640;28;20513;-77
2024/02/10 08:18:45;;;;;;;3.75;2.97;;;9.40;99.90;;;;;;4925514;28;20115;-77
2024/02/10 08:21:10;;;;;;;5.07;3.58;;;9.40;99.90;;;;;;4923588;28;20549;-79
2024/02/10 08:23:52;;;;;;;3.95;3.20;;;9.50;99.90;;;;;;4915754;28;20085;-79
2024/02/10 08:26:20;;;;;;;7.40;3.67;;;9.60;99.90;;;;;;4914187;28;20695;-80
2024/02/10 08:28:51;;;;;;;7.45;3.88;;;9.70;99.90;;;;;;4914018;28;20551;-80
2024/02/10 08:31:19;;;;;;;3.47;2.70;;;10.00;99.90;;;;;;4928326;28;20082;-80
2024/02/10 08:33:47;;;;;;;5.63;3.88;;;10.00;99.90;;;;;;4929433;28;20549;-78
2024/02/10 08:36:19;;;;;;;5.30;3.65;;;10.00;99.90;;;;;;4926260;28;20048;-79
2024/02/10 08:38:45;;;;;;;8.15;3.67;;;10.10;99.90;;;;;;4926015;28;20064;-78
2024/02/10 08:41:11;;;;;;;3.70;3.17;;;10.20;99.90;;;;;;4925324;28;20058;-78
2024/02/10 08:43:36;;;;;;;3.67;3.05;;;10.30;99.90;;;;;;4931340;28;20027;-79
2024/02/10 08:46:07;;;;;;;4.43;2.80;;;10.40;99.90;;;;;;4929844;28;20875;-79
2024/02/10 08:48:32;;;;;;;3.65;3.05;;;10.50;99.90;;;;;;4915406;28;20071;-78
2024/02/10 08:50:58;;;;;;;3.47;3.05;;;10.60;99.90;;;;;;4925079;28;20036;-77
2024/02/10 08:53:23;;;;;;;4.22;3.80;;;10.60;99.90;;;;;;4910390;28;20036;-78
2024/02/10 08:55:50;;;;;;;4.60;3.28;;;10.70;99.90;;;;;;4908441;28;20035;-78
2024/02/10 08:58:16;;;;;;;4.07;3.47;;;10.70;99.90;;;;;;4926787;28;20115;-79
2024/02/10 09:00:45;;;;;;;3.80;3.15;;;10.70;99.90;;;;;;4912971;28;20640;-78
2024/02/10 09:03:14;;;;;;;4.75;3.50;;;10.80;99.90;;;;;;4913613;28;20032;-79
2024/02/10 09:05:39;;;;;;;5.82;4.50;;;10.90;99.90;;;;;;4943305;28;20051;-79
2024/02/10 09:08:05;;;;;;;4.20;3.72;;;10.90;99.90;;;;;;4926297;28;20031;-78
2024/02/10 09:10:31;;;;;;;4.40;3.47;;;11.10;99.90;;;;;;4943823;28;20055;-79
2024/02/10 09:12:58;;;;;;;4.88;2.95;;;11.30;99.90;;;;;;4902233;28;20496;-79
2024/02/10 09:15:24;;;;;;;4.20;3.55;;;11.40;99.90;;;;;;4938698;28;20525;-80
2024/02/10 09:17:51;;;;;;;4.28;3.15;;;11.40;99.90;;;;;;4908793;28;20039;-80
2024/02/10 09:20:17;;;;;;;3.47;2.42;;;11.50;99.90;;;;;;4906792;28;20548;-80
2024/02/10 09:22:45;;;;;;;5.25;3.17;;;11.70;99.90;;;;;;4913343;28;20039;-80
2024/02/10 09:25:11;;;;;;;3.63;2.90;;;11.50;99.90;;;;;;4929404;28;20032;-80
2024/02/10 09:27:37;;;;;;;4.20;3.40;;;11.70;99.90;;;;;;4909422;28;20094;-80
2024/02/10 09:30:03;;;;;;;3.13;2.83;;;11.70;99.90;;;;;;4927721;28;20528;-80
2024/02/10 09:32:29;;;;;;;3.13;2.78;;;11.60;99.90;;;;;;4924140;28;20037;-80
2024/02/10 09:34:55;;;;;;;4.88;3.33;;;11.90;99.90;;;;;;4909844;28;20035;-81
2024/02/10 09:37:20;;;;;;;5.07;3.05;;;12.00;99.90;;;;;;4923655;28;20061;-80
2024/02/10 09:39:46;;;;;;;5.50;3.10;;;12.00;99.90;;;;;;4937451;28;20118;-79
2024/02/10 09:42:22;;;;;;;4.55;2.92;;;12.00;99.90;;;;;;4925470;28;20032;-80
2024/02/10 09:44:49;;;;;;;3.47;2.78;;;12.10;99.90;;;;;;4911656;29;20034;-80
2024/02/10 09:47:16;;;;;;;3.15;2.53;;;12.20;99.90;;;;;;4921204;29;20596;-80
2024/02/10 09:49:42;;;;;;;2.30;2.05;;;12.50;99.90;;;;;;4925226;28;20045;-80
2024/02/10 09:52:11;;;;;;;2.58;2.38;;;12.70;99.90;;;;;;4938667;28;20416;-80
2024/02/10 09:54:36;;;;;;;4.05;2.30;;;12.90;99.90;;;;;;4914702;28;20134;-78
2024/02/10 09:57:08;;;;;;;3.78;2.40;;;13.00;99.90;;;;;;4923079;28;20122;-78
2024/02/10 09:59:34;;;;;;;2.70;2.05;;;13.00;99.90;;;;;;4910111;28;20501;-81
2024/02/10 10:02:00;;;;;;;2.47;1.80;;;13.20;99.90;;;;;;4912143;28;20086;-78
2024/02/10 10:04:25;;;;;;;2.10;1.90;;;13.20;99.90;;;;;;4941582;28;20039;-78
2024/02/10 10:06:51;;;;;;;6.05;2.05;;;13.30;99.90;;;;;;4908020;28;20514;-78
2024/02/10 10:09:18;;;;;;;2.10;1.90;;;13.20;99.90;;;;;;4942304;28;20541;-78
2024/02/10 10:11:44;;;;;;;2.22;2.03;;;13.40;99.90;;;;;;4929010;28;20513;-78
2024/02/10 10:14:13;;;;;;;2.20;1.95;;;13.30;99.90;;;;;;4912315;28;20039;-78
2024/02/10 10:16:40;;;;;;;3.30;2.08;;;13.50;99.90;;;;;;4925047;28;20043;-79
2024/02/10 10:19:07;;;;;;;3.00;1.90;;;13.40;99.90;;;;;;4920663;28;20036;-78
2024/02/10 10:21:32;;;;;;;1.85;1.73;;;13.70;99.90;;;;;;4920083;28;20171;-78
2024/02/10 10:23:58;;;;;;;2.22;1.60;;;13.60;99.90;;;;;;4920118;28;20129;-78
2024/02/10 10:26:25;;;;;;;4.10;1.80;;;14.00;99.90;;;;;;4923842;28;20476;-78
2024/02/10 10:28:50;;;;;;;2.95;2.08;;;13.70;99.90;;;;;;4911439;28;20046;-78
2024/02/10 10:31:16;;;;;;;1.83;1.73;;;13.70;99.90;;;;;;4923430;28;20031;-78
2024/02/10 10:33:45;;;;;;;2.25;2.05;;;13.80;99.90;;;;;;4908196;28;20101;-78
2024/02/10 10:36:15;;;;;;;2.88;2.15;;;13.80;99.90;;;;;;4914930;28;20413;-78
2024/02/10 10:38:42;;;;;;;2.45;2.03;;;13.80;99.90;;;;;;4929544;28;20062;-78
2024/02/10 10:41:08;;;;;;;5.88;2.13;;;13.80;99.90;;;;;;4948273;28;20043;-78
2024/02/10 10:43:34;;;;;;;1.67;1.58;;;14.30;99.90;;;;;;4909689;28;20746;-77
2024/02/10 10:45:59;;;;;;;4.22;1.95;;;14.50;99.90;;;;;;4913988;28;20481;-78
2024/02/10 10:48:25;;;;;;;2.10;1.80;;;14.20;99.90;;;;;;4915894;28;20032;-78
2024/02/10 10:50:55;;;;;;;1.60;1.45;;;14.10;99.90;;;;;;4920905;28;20031;-78
2024/02/10 10:53:21;;;;;;;1.73;1.60;;;14.10;99.90;;;;;;4913490;28;20042;-77
2024/02/10 10:55:50;;;;;;;2.00;1.52;;;14.20;99.90;;;;;;4929224;28;20421;-78
2024/02/10 10:58:40;;;;;;;2.05;1.67;;;14.40;99.90;;;;;;4913307;28;20517;-78
2024/02/10 11:01:06;;;;;;;2.58;1.80;;;14.30;99.90;;;;;;4936914;28;20035;-78
2024/02/10 11:03:32;;;;;;;1.58;1.33;;;14.20;99.90;;;;;;4945728;28;20413;-78
2024/02/10 11:05:57;;;;;;;2.65;1.90;;;14.30;99.90;;;;;;4927529;28;20054;-78
2024/02/10 11:08:25;;;;;;;1.85;1.70;;;14.30;99.90;;;;;;4935575;28;20849;-78
2024/02/10 11:11:00;;;;;;;2.53;1.73;;;14.50;99.90;;;;;;4928453;28;20289;-79
2024/02/10 11:13:31;;;;;;;1.45;1.35;;;14.50;99.90;;;;;;4928044;28;20035;-79
2024/02/10 11:16:10;;;;;;;3.10;1.77;;;14.60;99.90;;;;;;4915411;28;20039;-79
2024/02/10 11:18:37;;;;;;;2.28;1.60;;;14.90;99.90;;;;;;4914862;28;20232;-78
2024/02/10 11:21:21;;;;;;;1.38;1.27;;;14.70;99.90;;;;;;4927474;28;20024;-78
2024/02/10 11:24:06;;;;;;;1.73;1.25;;;14.80;99.90;;;;;;4945240;28;20031;-78
2024/02/10 11:26:33;;;;;;;1.75;1.40;;;14.80;99.90;;;;;;4941598;28;20480;-77
2024/02/10 11:29:19;;;;;;;1.40;1.30;;;14.90;99.90;;;;;;4906538;28;20126;-78
2024/02/10 11:31:45;;;;;;;;;;;15.10;99.90;;;;;;4941956;28;20054;-77
2024/02/10 11:34:16;;;;;;;3.33;1.00;;;15.10;99.90;;;;;;4929758;28;19969;-78
2024/02/10 11:36:48;;;;;;;1.40;1.30;;;15.20;99.90;;;;;;4942901;28;20559;-78
2024/02/10 11:39:14;;;;;;;1.90;1.35;;;15.10;99.90;;;;;;4930618;28;20044;-78
2024/02/10 11:41:40;;;;;;;1.30;1.20;;;15.20;99.90;;;;;;4910232;28;20098;-78
2024/02/10 11:44:05;;;;;;;2.90;1.20;;;15.20;99.90;;;;;;4911298;28;20146;-78
2024/02/10 11:46:31;;;;;;;2.15;1.85;;;15.20;99.90;;;;;;4912792;28;20077;-78
2024/02/10 11:48:59;;;;;;;1.63;1.52;;;15.50;99.90;;;;;;4942572;28;20062;-78
2024/02/10 11:51:29;;;;;;;1.30;1.10;;;15.30;99.90;;;;;;4910484;28;20035;-78
2024/02/10 11:53:58;;;;;;;1.65;1.35;;;15.20;99.90;;;;;;4942175;28;20063;-78
2024/02/10 11:56:28;;;;;;;2.60;1.20;;;15.20;99.90;;;;;;4923856;28;20066;-78
2024/02/10 11:58:56;;;;;;;2.72;1.25;;;15.30;99.90;;;;;;4928545;28;20039;-78
2024/02/10 12:01:23;;;;;;;1.70;1.20;;;15.20;99.90;;;;;;4941841;28;20405;-78
2024/02/10 12:03:50;;;;;;;1.98;1.20;;;15.40;99.90;;;;;;4921293;28;20038;-77
2024/02/10 12:06:20;;;;;;;3.35;1.65;;;15.40;99.90;;;;;;4914292;28;20849;-78
2024/02/10 12:08:46;;;;;;;1.70;1.40;;;15.30;99.90;;;;;;4929616;28;20063;-78
2024/02/10 12:11:11;;;;;;;5.03;1.35;;;15.50;99.90;;;;;;4942247;28;20039;-78
2024/02/10 12:13:40;;;;;;;2.78;1.58;;;15.40;99.90;;;;;;4914148;28;20043;-78
2024/02/10 12:16:11;;;;;;;2.33;1.40;;;15.30;99.90;;;;;;4911868;28;20433;-78
2024/02/10 12:18:40;;;;;;;1.65;1.10;;;15.50;99.90;;;;;;4921059;28;20027;-78
2024/02/10 12:21:06;;;;;;;1.67;0.90;;;15.60;99.90;;;;;;4927076;28;20489;-78
2024/02/10 12:23:32;;;;;;;2.40;1.20;;;15.80;99.90;;;;;;4929603;28;20035;-77
2024/02/10 12:26:03;;;;;;;2.08;1.15;;;15.70;99.90;;;;;;4915138;28;20038;-77
2024/02/10 12:28:32;;;;;;;1.15;1.05;;;15.70;99.90;;;;;;4925599;28;20053;-77
2024/02/10 12:31:01;;;;;;;1.15;1.05;;;15.70;99.90;;;;;;4912767;28;20035;-77
2024/02/10 12:33:26;;;;;;;2.58;0.95;;;15.80;99.90;;;;;;4912818;28;20039;-76
2024/02/10 12:35:55;;;;;;;1.60;1.08;;;16.00;99.90;;;;;;4926000;28;20049;-78
2024/02/10 12:38:27;;;;;;;2.22;1.05;;;16.10;99.90;;;;;;4909816;28;20047;-77
2024/02/10 12:40:54;;;;;;;2.53;1.20;;;15.80;99.90;;;;;;4923414;28;20045;-78
2024/02/10 12:43:21;;;;;;;1.05;0.90;;;16.00;99.90;;;;;;4924910;28;20493;-77
2024/02/10 12:45:47;;;;;;;2.25;0.95;;;15.90;99.90;;;;;;4907407;28;20450;-77
2024/02/10 12:48:16;;;;;;;2.08;1.20;;;15.90;99.90;;;;;;4908806;28;20032;-77
2024/02/10 12:50:49;;;;;;;1.45;1.35;;;16.00;99.90;;;;;;4911332;28;20110;-78
2024/02/10 12:53:14;;;;;;;0.90;0.90;;;15.90;99.90;;;;;;4927185;28;20115;-77